createdAt,value
2022-08-08T00:02:03.830Z,1.90
2022-08-08T00:09:27.643Z,2.90
2022-08-08T00:16:33.170Z,3.55
2022-08-08T00:23:40.657Z,2.05
2022-08-08T00:30:34.130Z,2.03
2022-08-08T00:37:47.050Z,1.90
2022-08-08T00:44:27.678Z,2.17
2022-08-08T00:51:38.814Z,1.80
2022-08-08T00:58:54.699Z,1.80
2022-08-08T01:06:08.121Z,1.83
2022-08-08T01:13:43.423Z,2.20
2022-08-08T01:20:49.722Z,1.60
2022-08-08T01:27:52.018Z,1.60
2022-08-08T01:34:49.738Z,1.73
2022-08-08T01:41:45.705Z,1.80
2022-08-08T01:48:51.174Z,1.75
2022-08-08T01:56:28.709Z,1.90
2022-08-08T02:03:56.018Z,1.80
2022-08-08T02:11:07.355Z,1.90
2022-08-08T02:18:34.131Z,1.73
2022-08-08T02:25:19.867Z,1.80
2022-08-08T02:32:10.849Z,1.95
2022-08-08T02:39:59.640Z,1.77
2022-08-08T02:47:04.370Z,2.20
2022-08-08T02:54:14.078Z,1.92
2022-08-08T03:01:21.170Z,2.17
2022-08-08T03:08:34.554Z,2.15
2022-08-08T03:15:57.989Z,2.13
2022-08-08T03:22:56.880Z,2.28
2022-08-08T03:29:55.673Z,2.30
2022-08-08T03:36:41.502Z,2.28
2022-08-08T03:43:25.099Z,2.00
2022-08-08T03:50:24.497Z,2.28
2022-08-08T03:58:30.878Z,2.40
2022-08-08T04:04:19.803Z,2.10
2022-08-08T04:11:10.924Z,2.03
2022-08-08T04:17:59.146Z,2.45
2022-08-08T04:24:42.491Z,2.10
2022-08-08T04:31:59.185Z,2.25
2022-08-08T04:38:33.622Z,2.17
2022-08-08T04:45:18.021Z,2.70
2022-08-08T04:52:00.572Z,2.05
2022-08-08T04:58:48.448Z,2.33
2022-08-08T05:05:44.494Z,2.53
2022-08-08T05:12:29.098Z,2.90
2022-08-08T05:20:10.985Z,2.40
2022-08-08T05:26:15.262Z,2.72
2022-08-08T05:33:03.354Z,2.47
2022-08-08T05:39:54.858Z,3.40
2022-08-08T05:46:41.504Z,2.72
2022-08-08T05:54:24.919Z,2.67
2022-08-08T06:00:33.939Z,2.92
2022-08-08T06:07:18.509Z,3.30
2022-08-08T06:14:05.948Z,3.55
2022-08-08T06:20:52.893Z,4.20
2022-08-08T06:27:53.786Z,3.60
2022-08-08T06:34:39.216Z,2.83
2022-08-08T06:41:25.628Z,2.60
2022-08-08T06:48:15.257Z,2.60
2022-08-08T06:55:01.006Z,2.63
2022-08-08T07:02:26.530Z,2.85
2022-08-08T07:09:07.761Z,2.33
2022-08-08T07:16:11.784Z,2.42
2022-08-08T07:23:02.331Z,2.80
2022-08-08T07:29:59.706Z,2.65
2022-08-08T07:36:50.396Z,2.60
2022-08-08T07:43:39.481Z,2.70
2022-08-08T07:50:25.946Z,2.70
2022-08-08T07:57:48.226Z,2.42
2022-08-08T08:04:42.978Z,2.40
2022-08-08T08:11:34.032Z,2.50
2022-08-08T08:18:31.648Z,2.50
2022-08-08T08:25:19.146Z,2.58
2022-08-08T08:32:05.510Z,2.40
2022-08-08T08:38:50.216Z,2.13
2022-08-08T08:45:38.666Z,2.20
2022-08-08T08:52:22.246Z,2.05
2022-08-08T08:59:15.358Z,2.60
2022-08-08T09:06:26.286Z,2.15
2022-08-08T09:13:11.610Z,2.13
2022-08-08T09:21:56.521Z,1.95
2022-08-08T09:27:20.002Z,1.95
2022-08-08T09:34:31.633Z,2.00
2022-08-08T09:41:12.924Z,2.03
2022-08-08T09:48:16.024Z,2.13
2022-08-08T09:55:03.844Z,2.35
2022-08-08T10:01:58.536Z,1.80
2022-08-08T10:08:50.336Z,2.10
2022-08-08T10:15:39.177Z,1.80
2022-08-08T10:22:23.770Z,2.00
2022-08-08T10:29:11.325Z,2.35
2022-08-08T10:36:08.101Z,2.10
2022-08-08T10:43:05.539Z,2.10
2022-08-08T10:50:01.506Z,1.80
2022-08-08T10:56:44.777Z,1.50
2022-08-08T11:03:36.848Z,1.50
2022-08-08T11:10:30.843Z,1.23
2022-08-08T11:17:15.606Z,1.30
2022-08-08T11:24:02.930Z,1.50
2022-08-08T11:30:50.317Z,1.52
2022-08-08T11:38:34.631Z,1.40
2022-08-08T11:44:40.387Z,1.73
2022-08-08T11:51:38.996Z,1.50
2022-08-08T11:58:33.990Z,1.60
2022-08-08T12:05:16.727Z,1.77
2022-08-08T12:11:59.259Z,1.60
2022-08-08T12:18:46.470Z,1.58
2022-08-08T12:25:30.891Z,1.50
2022-08-08T12:32:20.349Z,1.73
2022-08-08T12:39:06.763Z,1.70
2022-08-08T12:45:57.732Z,1.67
2022-08-08T12:52:54.375Z,1.38
2022-08-08T13:00:04.686Z,1.35
2022-08-08T13:07:05.991Z,1.40
2022-08-08T13:13:59.717Z,1.63
2022-08-08T13:20:48.847Z,1.60
2022-08-08T13:27:35.528Z,1.83
2022-08-08T13:34:33.127Z,1.60
2022-08-08T13:41:19.022Z,1.33
2022-08-08T13:48:13.688Z,2.00
2022-08-08T13:54:59.071Z,1.80
2022-08-08T14:01:53.119Z,1.48
2022-08-08T14:08:45.888Z,1.23
2022-08-08T14:15:46.479Z,1.35
2022-08-08T14:22:37.614Z,1.70
2022-08-08T14:29:28.114Z,1.60
2022-08-08T14:36:13.467Z,1.30
2022-08-08T14:43:01.487Z,4.35
2022-08-08T14:50:16.193Z,1.88
2022-08-08T14:57:05.070Z,1.48
2022-08-08T15:03:53.564Z,1.52
2022-08-08T15:10:50.417Z,1.40
2022-08-08T15:17:33.225Z,1.30
2022-08-08T15:24:19.054Z,1.48
2022-08-08T15:31:03.996Z,1.67
2022-08-08T15:37:46.413Z,1.10
2022-08-08T15:44:29.562Z,2.28
2022-08-08T15:51:15.503Z,1.25
2022-08-08T15:57:58.696Z,1.50
2022-08-08T16:04:42.481Z,1.60
2022-08-08T16:13:20.912Z,1.50
2022-08-08T16:18:28.244Z,1.33
2022-08-08T16:25:10.860Z,1.08
2022-08-08T16:31:53.246Z,1.10
2022-08-08T16:38:35.902Z,1.38
2022-08-08T16:46:37.079Z,1.17
2022-08-08T16:55:05.940Z,1.30
2022-08-08T16:59:52.009Z,1.30
2022-08-08T17:06:36.601Z,0.82
2022-08-08T17:13:20.529Z,1.27
2022-08-08T17:20:10.542Z,1.27
2022-08-08T17:26:58.010Z,1.27
2022-08-08T17:34:36.683Z,0.88
2022-08-08T17:40:43.989Z,1.10
2022-08-08T17:47:40.632Z,1.10
2022-08-08T17:54:26.140Z,0.90
2022-08-08T18:01:11.451Z,1.15
2022-08-08T18:08:15.582Z,1.00
2022-08-08T18:14:56.104Z,1.10
2022-08-08T18:22:01.269Z,1.45
2022-08-08T18:28:54.399Z,1.20
2022-08-08T18:35:47.509Z,1.48
2022-08-08T18:42:31.355Z,1.15
2022-08-08T18:49:13.688Z,1.73
2022-08-08T18:55:56.047Z,1.50
2022-08-08T19:02:38.435Z,2.10
2022-08-08T19:09:48.494Z,1.45
2022-08-08T19:16:33.147Z,1.80
2022-08-08T19:23:16.599Z,2.33
2022-08-08T19:29:59.861Z,1.30
2022-08-08T19:36:42.239Z,1.63
2022-08-08T19:43:28.129Z,1.60
2022-08-08T19:50:14.830Z,1.67
2022-08-08T19:56:57.726Z,1.50
2022-08-08T20:04:00.988Z,1.35
2022-08-08T20:10:44.348Z,1.55
2022-08-08T20:17:37.189Z,1.77
2022-08-08T20:24:20.238Z,1.40
2022-08-08T20:31:02.575Z,1.35
2022-08-08T20:37:53.349Z,1.67
2022-08-08T20:44:37.776Z,3.60
2022-08-08T20:51:20.820Z,1.70
2022-08-08T20:58:03.555Z,1.58
2022-08-08T21:05:00.824Z,1.90
2022-08-08T21:11:51.285Z,2.00
2022-08-08T21:18:34.993Z,2.15
2022-08-08T21:25:17.419Z,1.60
2022-08-08T21:32:00.206Z,1.83
2022-08-08T21:38:42.849Z,2.00
2022-08-08T21:48:01.836Z,1.90
2022-08-08T21:54:33.037Z,1.80
2022-08-08T22:00:03.197Z,1.80
2022-08-08T22:06:33.431Z,1.75
2022-08-08T22:13:21.570Z,1.90
2022-08-08T22:20:11.602Z,2.10
2022-08-08T22:27:01.999Z,2.05
2022-08-08T22:34:13.574Z,1.80
2022-08-08T22:40:50.314Z,2.22
2022-08-08T22:47:34.228Z,2.10
2022-08-08T22:54:30.027Z,2.22
2022-08-08T23:02:02.260Z,2.33
2022-08-08T23:08:20.102Z,1.88
2022-08-08T23:15:10.774Z,1.70
2022-08-08T23:22:09.351Z,2.20
2022-08-08T23:28:52.099Z,2.08
2022-08-08T23:36:06.747Z,2.28
2022-08-08T23:42:37.041Z,2.05
2022-08-08T23:49:21.663Z,2.03
2022-08-08T23:56:07.103Z,2.30
